Saltcoats, United Kingdom
Current Conditions -  °F | °C
As of 2:50 AM on Wednesday 22 Oct 2014 (Local Time) from EGPK Reporting Station
Scattered Clouds Scattered Clouds  
Wind Chill: 52°   Ceiling: Unl
Heat Index: 52°   Visibility: 6mi
Dew Point: 43°   Wind: 20mph
Humidity: 71%   Direction: 290°WNW
Pressure: 30.06"   Gusts: NA
Location:  55.62°N, 4.8°W
Report Text: EGPK 220150Z 29017KT 9999 SCT045 11/06 Q1018
Loading
Personal Weather Stations






























Interactive Weather Map
Tropical Storm Tracking
New forecast layout! Learn more

10-Day Weather Forecast

Advertisements
Track Severe Weather on mobile